BAW42Y LFLL-EGLL
Flight info
| Callsign | BAW42Y |
|---|---|
| Flight time | N/A |
| Altitude | 30000 |
| Route | BUSIL DCT AMORO DCT MOMIL DCT BAGBI DCT SIZZA/N0438F360 DCT LAULY DCT BRY DCT CLM DCT KOPOR DCT ABNUR DCT DIMAL DCT ALESO |
| Aircraft | A320/M-SDE3FGHIRWY/LB1 |
Departure
| Time | 2026-05-07 10:03 |
|---|---|
| Airport | Lyon Saint-Exupéry Airport (LFLL) |
Arrival
| Time | N/A |
|---|---|
| Airport | London Heathrow Airport (EGLL) |
| Time | Latitude | Longitude | Altitude | Speed | Heading |
|---|---|---|---|---|---|
| 2026-05-07 09:44 | 45.71570 | 5.07784 | 797 ft | 0 kts | 352° |
| 2026-05-07 09:52 | 45.71557 | 5.07787 | 796 ft | 4 kts | 350° |
| 2026-05-07 09:53 | 45.71530 | 5.07792 | 796 ft | 4 kts | 360° |
| 2026-05-07 09:53 | 45.71508 | 5.07788 | 796 ft | 4 kts | 17° |
| 2026-05-07 09:53 | 45.71486 | 5.07773 | 796 ft | 4 kts | 61° |
| 2026-05-07 09:53 | 45.71485 | 5.07744 | 796 ft | 3 kts | 104° |
| 2026-05-07 09:54 | 45.71486 | 5.07738 | 796 ft | 0 kts | 104° |
| 2026-05-07 09:56 | 45.71486 | 5.07739 | 796 ft | 1 kts | 104° |
| 2026-05-07 09:57 | 45.71481 | 5.07766 | 796 ft | 5 kts | 104° |
| 2026-05-07 09:57 | 45.71468 | 5.07817 | 796 ft | 6 kts | 118° |
| 2026-05-07 09:57 | 45.71446 | 5.07884 | 796 ft | 8 kts | 108° |
| 2026-05-07 09:57 | 45.71450 | 5.07973 | 798 ft | 9 kts | 62° |
| 2026-05-07 09:58 | 45.71455 | 5.08046 | 801 ft | 7 kts | 103° |
| 2026-05-07 09:58 | 45.71443 | 5.08111 | 802 ft | 7 kts | 105° |
| 2026-05-07 09:58 | 45.71430 | 5.08183 | 802 ft | 8 kts | 105° |
| 2026-05-07 09:58 | 45.71415 | 5.08265 | 803 ft | 9 kts | 105° |
| 2026-05-07 09:59 | 45.71411 | 5.08361 | 804 ft | 10 kts | 85° |
| 2026-05-07 09:59 | 45.71416 | 5.08456 | 807 ft | 9 kts | 85° |
| 2026-05-07 09:59 | 45.71398 | 5.08515 | 810 ft | 5 kts | 144° |
| 2026-05-07 09:59 | 45.71373 | 5.08529 | 811 ft | 4 kts | 165° |
| 2026-05-07 10:00 | 45.71325 | 5.08540 | 812 ft | 10 kts | 174° |
| 2026-05-07 10:00 | 45.71251 | 5.08545 | 814 ft | 11 kts | 175° |
| 2026-05-07 10:00 | 45.71172 | 5.08563 | 814 ft | 11 kts | 161° |
| 2026-05-07 10:00 | 45.71119 | 5.08643 | 818 ft | 12 kts | 110° |
| 2026-05-07 10:01 | 45.71096 | 5.08762 | 819 ft | 13 kts | 104° |
| 2026-05-07 10:01 | 45.71088 | 5.08806 | 818 ft | 1 kts | 104° |
| 2026-05-07 10:01 | 45.71086 | 5.08822 | 818 ft | 2 kts | 104° |
| 2026-05-07 10:01 | 45.71079 | 5.08861 | 820 ft | 7 kts | 102° |
| 2026-05-07 10:02 | 45.71080 | 5.08952 | 821 ft | 10 kts | 85° |
| 2026-05-07 10:02 | 45.71131 | 5.09020 | 820 ft | 13 kts | 9° |
| 2026-05-07 10:02 | 45.71283 | 5.09005 | 818 ft | 47 kts | 355° |
| 2026-05-07 10:02 | 45.71830 | 5.08940 | 812 ft | 108 kts | 355° |
| 2026-05-07 10:03 | 45.72727 | 5.08827 | 793 ft | 152 kts | 356° |
| 2026-05-07 10:03 | 45.73822 | 5.08709 | 1248 ft | 159 kts | 356° |
| 2026-05-07 10:03 | 45.74926 | 5.08564 | 1848 ft | 163 kts | 355° |
| 2026-05-07 10:03 | 45.76086 | 5.08402 | 2296 ft | 176 kts | 354° |
| 2026-05-07 10:04 | 45.77382 | 5.08227 | 2548 ft | 199 kts | 355° |
| 2026-05-07 10:04 | 45.78852 | 5.08039 | 2802 ft | 226 kts | 355° |
| 2026-05-07 10:04 | 45.80433 | 5.07852 | 3573 ft | 230 kts | 355° |
| 2026-05-07 10:04 | 45.82054 | 5.07666 | 4283 ft | 240 kts | 355° |
| 2026-05-07 10:05 | 45.83782 | 5.07462 | 4808 ft | 259 kts | 355° |
| 2026-05-07 10:05 | 45.85606 | 5.07236 | 5531 ft | 267 kts | 355° |
| 2026-05-07 10:05 | 45.87483 | 5.06999 | 6339 ft | 273 kts | 355° |
| 2026-05-07 10:05 | 45.89394 | 5.06759 | 7129 ft | 278 kts | 355° |
| 2026-05-07 10:06 | 45.91330 | 5.06509 | 7931 ft | 281 kts | 352° |
| 2026-05-07 10:06 | 45.93211 | 5.05757 | 8763 ft | 282 kts | 335° |
| 2026-05-07 10:06 | 45.94922 | 5.04352 | 9575 ft | 285 kts | 325° |
| 2026-05-07 10:06 | 45.96586 | 5.02752 | 10290 ft | 291 kts | 325° |
| 2026-05-07 10:07 | 45.98345 | 5.01106 | 10559 ft | 313 kts | 326° |
| 2026-05-07 10:07 | 46.00235 | 4.99374 | 10896 ft | 329 kts | 326° |
| 2026-05-07 10:07 | 46.02185 | 4.97597 | 11526 ft | 333 kts | 326° |
| 2026-05-07 10:07 | 46.04150 | 4.95798 | 12225 ft | 336 kts | 326° |
| 2026-05-07 10:08 | 46.06129 | 4.93973 | 12933 ft | 339 kts | 325° |
| 2026-05-07 10:08 | 46.08120 | 4.92127 | 13652 ft | 341 kts | 325° |
| 2026-05-07 10:08 | 46.10120 | 4.90262 | 14296 ft | 343 kts | 325° |
| 2026-05-07 10:08 | 46.12107 | 4.88405 | 14890 ft | 346 kts | 324° |
| 2026-05-07 10:09 | 46.14135 | 4.86505 | 15477 ft | 349 kts | 324° |
| 2026-05-07 10:09 | 46.16178 | 4.84589 | 16061 ft | 352 kts | 325° |
| 2026-05-07 10:09 | 46.18234 | 4.82658 | 16651 ft | 354 kts | 325° |
| 2026-05-07 10:09 | 46.20311 | 4.80711 | 17231 ft | 357 kts | 325° |
| 2026-05-07 10:10 | 46.22406 | 4.78749 | 17814 ft | 360 kts | 325° |
| 2026-05-07 10:10 | 46.24511 | 4.76773 | 18429 ft | 361 kts | 325° |
| 2026-05-07 10:10 | 46.26627 | 4.74784 | 18948 ft | 364 kts | 325° |
| 2026-05-07 10:10 | 46.28758 | 4.72778 | 19441 ft | 368 kts | 325° |
| 2026-05-07 10:11 | 46.30918 | 4.70767 | 19938 ft | 371 kts | 326° |
| 2026-05-07 10:11 | 46.33121 | 4.68784 | 20433 ft | 375 kts | 327° |
| 2026-05-07 10:11 | 46.35357 | 4.66808 | 20923 ft | 378 kts | 327° |
| 2026-05-07 10:11 | 46.37615 | 4.64826 | 21392 ft | 381 kts | 327° |
| 2026-05-07 10:12 | 46.39887 | 4.62827 | 21849 ft | 383 kts | 327° |
| 2026-05-07 10:12 | 46.42173 | 4.60804 | 22318 ft | 386 kts | 327° |
| 2026-05-07 10:12 | 46.44471 | 4.58758 | 22787 ft | 389 kts | 327° |
| 2026-05-07 10:12 | 46.46818 | 4.56782 | 23242 ft | 393 kts | 332° |
| 2026-05-07 10:13 | 46.49392 | 4.55370 | 23686 ft | 398 kts | 343° |
| 2026-05-07 10:13 | 46.52129 | 4.54670 | 24077 ft | 402 kts | 354° |
| 2026-05-07 10:13 | 46.54940 | 4.54721 | 24475 ft | 407 kts | 3° |
| 2026-05-07 10:13 | 46.57768 | 4.55145 | 24874 ft | 409 kts | 5° |
| 2026-05-07 10:14 | 46.60595 | 4.55654 | 25263 ft | 411 kts | 5° |
| 2026-05-07 10:14 | 46.63438 | 4.56210 | 25650 ft | 413 kts | 6° |
| 2026-05-07 10:14 | 46.66287 | 4.56786 | 26035 ft | 415 kts | 6° |
| 2026-05-07 10:14 | 46.69158 | 4.57362 | 26421 ft | 417 kts | 5° |
| 2026-05-07 10:15 | 46.72001 | 4.57915 | 26810 ft | 419 kts | 5° |
| 2026-05-07 10:15 | 46.74897 | 4.58462 | 27177 ft | 420 kts | 5° |
| 2026-05-07 10:15 | 46.77813 | 4.58936 | 27544 ft | 421 kts | 0° |
| 2026-05-07 10:15 | 46.80732 | 4.58817 | 27905 ft | 420 kts | 351° |
| 2026-05-07 10:16 | 46.83590 | 4.57999 | 28271 ft | 419 kts | 341° |
| 2026-05-07 10:16 | 46.86317 | 4.56510 | 28630 ft | 418 kts | 333° |
| 2026-05-07 10:16 | 46.88973 | 4.54755 | 29011 ft | 420 kts | 333° |
| 2026-05-07 10:16 | 46.91646 | 4.53005 | 29422 ft | 421 kts | 334° |
| 2026-05-07 10:17 | 46.94328 | 4.51264 | 29797 ft | 422 kts | 334° |
| 2026-05-07 10:17 | 46.97030 | 4.49516 | 30026 ft | 424 kts | 334° |
| 2026-05-07 10:17 | 46.99693 | 4.47792 | 30054 ft | 413 kts | 334° |
| 2026-05-07 10:18 | 47.04902 | 4.44402 | 30054 ft | 408 kts | 334° |
| 2026-05-07 10:18 | 47.10074 | 4.41007 | 30062 ft | 407 kts | 334° |
| 2026-05-07 10:19 | 47.15209 | 4.37623 | 30054 ft | 407 kts | 334° |
| 2026-05-07 10:19 | 47.20372 | 4.34222 | 30053 ft | 406 kts | 334° |
| 2026-05-07 10:20 | 47.25533 | 4.30824 | 30053 ft | 407 kts | 334° |
| 2026-05-07 10:20 | 47.30700 | 4.27418 | 30061 ft | 407 kts | 334° |
| 2026-05-07 10:21 | 47.35855 | 4.24002 | 30065 ft | 406 kts | 334° |
| 2026-05-07 10:21 | 47.41013 | 4.20571 | 30070 ft | 406 kts | 334° |
| 2026-05-07 10:22 | 47.46163 | 4.17143 | 30071 ft | 406 kts | 334° |
| 2026-05-07 10:22 | 47.51317 | 4.13706 | 30059 ft | 407 kts | 334° |
| 2026-05-07 10:23 | 47.56487 | 4.10257 | 30053 ft | 408 kts | 334° |
| 2026-05-07 10:23 | 47.61660 | 4.06799 | 30049 ft | 408 kts | 334° |
| 2026-05-07 10:24 | 47.66853 | 4.03325 | 30054 ft | 409 kts | 334° |
| 2026-05-07 10:24 | 47.72039 | 3.99853 | 30061 ft | 409 kts | 334° |
| 2026-05-07 10:25 | 47.77228 | 3.96362 | 30069 ft | 409 kts | 334° |
| 2026-05-07 10:25 | 47.82411 | 3.92862 | 30068 ft | 409 kts | 334° |
| 2026-05-07 10:26 | 47.87604 | 3.89362 | 30067 ft | 409 kts | 334° |
| 2026-05-07 10:26 | 47.92761 | 3.85870 | 30072 ft | 409 kts | 334° |
| 2026-05-07 10:27 | 47.97938 | 3.82351 | 30071 ft | 409 kts | 334° |
| 2026-05-07 10:27 | 48.03122 | 3.78830 | 30072 ft | 409 kts | 334° |
| 2026-05-07 10:28 | 48.08300 | 3.75302 | 30076 ft | 409 kts | 334° |
| 2026-05-07 10:28 | 48.13472 | 3.71724 | 30067 ft | 409 kts | 330° |
| 2026-05-07 10:29 | 48.17960 | 3.66619 | 30073 ft | 405 kts | 312° |
| 2026-05-07 10:29 | 48.21210 | 3.59710 | 30020 ft | 410 kts | 302° |
| 2026-05-07 10:30 | 48.24262 | 3.52645 | 28298 ft | 398 kts | 302° |
| 2026-05-07 10:30 | 48.25253 | 3.50339 | 27685 ft | 395 kts | 302° |
| 2026-05-07 10:30 | 48.26729 | 3.46888 | 26798 ft | 390 kts | 302° |
| 2026-05-07 10:30 | 48.28185 | 3.43473 | 25954 ft | 386 kts | 301° |
| 2026-05-07 10:31 | 48.29622 | 3.40101 | 25131 ft | 382 kts | 301° |
| 2026-05-07 10:31 | 48.31045 | 3.36770 | 24536 ft | 373 kts | 301° |
| 2026-05-07 10:31 | 48.32337 | 3.33502 | 24296 ft | 356 kts | 292° |
| 2026-05-07 10:31 | 48.33008 | 3.29975 | 24058 ft | 349 kts | 275° |
| 2026-05-07 10:32 | 48.32939 | 3.26361 | 23817 ft | 347 kts | 258° |
| 2026-05-07 10:32 | 48.32365 | 3.22846 | 23589 ft | 346 kts | 255° |
| 2026-05-07 10:32 | 48.31769 | 3.19397 | 23315 ft | 344 kts | 255° |
| 2026-05-07 10:32 | 48.31161 | 3.15893 | 23027 ft | 339 kts | 255° |
| 2026-05-07 10:33 | 48.30580 | 3.12553 | 22742 ft | 322 kts | 255° |
| 2026-05-07 10:33 | 48.30028 | 3.09368 | 22468 ft | 308 kts | 255° |
| 2026-05-07 10:33 | 48.29630 | 3.06301 | 22201 ft | 306 kts | 268° |
| 2026-05-07 10:33 | 48.29937 | 3.03058 | 21937 ft | 325 kts | 290° |
| 2026-05-07 10:34 | 48.31024 | 3.00010 | 21681 ft | 335 kts | 301° |
| 2026-05-07 10:34 | 48.32266 | 2.97041 | 21416 ft | 336 kts | 301° |
| 2026-05-07 10:34 | 48.33521 | 2.94075 | 21157 ft | 336 kts | 301° |
| 2026-05-07 10:34 | 48.34771 | 2.91116 | 20902 ft | 335 kts | 301° |
| 2026-05-07 10:35 | 48.36014 | 2.88166 | 20642 ft | 333 kts | 301° |
| 2026-05-07 10:35 | 48.37249 | 2.85222 | 20381 ft | 332 kts | 301° |
| 2026-05-07 10:35 | 48.38474 | 2.82289 | 20130 ft | 331 kts | 301° |
| 2026-05-07 10:35 | 48.39693 | 2.79362 | 19891 ft | 330 kts | 301° |
| 2026-05-07 10:36 | 48.40908 | 2.76437 | 19655 ft | 328 kts | 301° |
| 2026-05-07 10:36 | 48.42126 | 2.73499 | 18990 ft | 336 kts | 301° |
| 2026-05-07 10:36 | 48.43341 | 2.70567 | 18744 ft | 320 kts | 301° |
| 2026-05-07 10:36 | 48.44487 | 2.67809 | 18599 ft | 302 kts | 301° |
| 2026-05-07 10:37 | 48.45581 | 2.65173 | 18350 ft | 294 kts | 301° |
| 2026-05-07 10:37 | 48.46649 | 2.62544 | 18086 ft | 293 kts | 299° |
| 2026-05-07 10:37 | 48.47682 | 2.59908 | 17817 ft | 292 kts | 304° |
| 2026-05-07 10:37 | 48.49175 | 2.57865 | 17547 ft | 294 kts | 331° |
| 2026-05-07 10:38 | 48.51145 | 2.57087 | 17275 ft | 297 kts | 359° |
| 2026-05-07 10:38 | 48.53158 | 2.57724 | 17033 ft | 300 kts | 25° |
| 2026-05-07 10:38 | 48.54808 | 2.59630 | 16765 ft | 302 kts | 51° |
| 2026-05-07 10:38 | 48.55757 | 2.62423 | 16505 ft | 301 kts | 77° |
| 2026-05-07 10:39 | 48.55826 | 2.65555 | 16243 ft | 300 kts | 100° |
| 2026-05-07 10:39 | 48.55439 | 2.68648 | 15992 ft | 300 kts | 102° |
| 2026-05-07 10:39 | 48.55033 | 2.71740 | 15740 ft | 299 kts | 102° |
| 2026-05-07 10:39 | 48.54622 | 2.74766 | 15490 ft | 298 kts | 102° |
| 2026-05-07 10:40 | 48.54195 | 2.77824 | 15239 ft | 297 kts | 103° |
| 2026-05-07 10:40 | 48.53629 | 2.80805 | 14983 ft | 294 kts | 118° |
| 2026-05-07 10:40 | 48.52407 | 2.83216 | 14717 ft | 289 kts | 142° |
| 2026-05-07 10:40 | 48.50676 | 2.84679 | 14478 ft | 285 kts | 166° |
| 2026-05-07 10:41 | 48.48735 | 2.84993 | 14234 ft | 280 kts | 188° |
| 2026-05-07 10:41 | 48.46890 | 2.84167 | 13991 ft | 276 kts | 211° |
| 2026-05-07 10:41 | 48.45409 | 2.82388 | 13739 ft | 273 kts | 232° |
| 2026-05-07 10:41 | 48.44484 | 2.79924 | 13463 ft | 271 kts | 253° |
| 2026-05-07 10:42 | 48.44236 | 2.77134 | 13203 ft | 270 kts | 274° |
| 2026-05-07 10:42 | 48.44509 | 2.74329 | 12939 ft | 271 kts | 280° |
| 2026-05-07 10:42 | 48.44891 | 2.71552 | 12668 ft | 271 kts | 282° |
| 2026-05-07 10:42 | 48.45309 | 2.68781 | 12432 ft | 272 kts | 282° |
| 2026-05-07 10:43 | 48.45735 | 2.66004 | 12170 ft | 272 kts | 282° |
| 2026-05-07 10:43 | 48.46191 | 2.63245 | 12054 ft | 270 kts | 289° |
| 2026-05-07 10:43 | 48.47181 | 2.60858 | 12068 ft | 273 kts | 314° |
| 2026-05-07 10:43 | 48.48775 | 2.59321 | 12071 ft | 276 kts | 340° |
| 2026-05-07 10:44 | 48.50674 | 2.58995 | 12078 ft | 278 kts | 7° |
| 2026-05-07 10:44 | 48.52481 | 2.59988 | 12089 ft | 280 kts | 34° |
| 2026-05-07 10:44 | 48.53814 | 2.62102 | 12092 ft | 281 kts | 62° |
| 2026-05-07 10:44 | 48.54379 | 2.64891 | 12093 ft | 280 kts | 89° |
| 2026-05-07 10:45 | 48.54127 | 2.67783 | 12096 ft | 279 kts | 104° |
| 2026-05-07 10:45 | 48.53694 | 2.70690 | 12089 ft | 294 kts | 109° |
| 2026-05-07 10:45 | 48.52606 | 2.73296 | 12083 ft | 298 kts | 141° |
| 2026-05-07 10:45 | 48.50777 | 2.74646 | 12061 ft | 296 kts | 173° |
| 2026-05-07 10:46 | 48.48765 | 2.74334 | 12062 ft | 293 kts | 204° |
| 2026-05-07 10:46 | 48.47185 | 2.72466 | 12063 ft | 292 kts | 235° |
| 2026-05-07 10:46 | 48.46419 | 2.69665 | 12064 ft | 293 kts | 261° |
| 2026-05-07 10:46 | 48.46225 | 2.66596 | 12062 ft | 294 kts | 265° |
| 2026-05-07 10:47 | 48.46106 | 2.63516 | 11959 ft | 294 kts | 271° |
| 2026-05-07 10:47 | 48.46246 | 2.60434 | 11578 ft | 296 kts | 273° |
| 2026-05-07 10:47 | 48.46402 | 2.57352 | 11232 ft | 294 kts | 274° |
| 2026-05-07 10:47 | 48.46556 | 2.54283 | 10880 ft | 293 kts | 274° |
| 2026-05-07 10:48 | 48.46708 | 2.51226 | 10538 ft | 292 kts | 273° |
| 2026-05-07 10:48 | 48.46858 | 2.48178 | 10191 ft | 290 kts | 273° |
| 2026-05-07 10:48 | 48.47001 | 2.45207 | 9849 ft | 279 kts | 273° |
| 2026-05-07 10:48 | 48.47137 | 2.42358 | 9506 ft | 267 kts | 273° |
| 2026-05-07 10:49 | 48.47267 | 2.39615 | 9205 ft | 258 kts | 273° |
| 2026-05-07 10:49 | 48.47391 | 2.36929 | 8918 ft | 262 kts | 272° |
| 2026-05-07 10:49 | 48.47203 | 2.34149 | 8632 ft | 274 kts | 255° |
| 2026-05-07 10:49 | 48.46684 | 2.31365 | 8342 ft | 277 kts | 252° |
| 2026-05-07 10:50 | 48.46123 | 2.28595 | 8057 ft | 277 kts | 252° |
| 2026-05-07 10:50 | 48.45552 | 2.25824 | 7774 ft | 276 kts | 252° |
| 2026-05-07 10:50 | 48.44978 | 2.23065 | 7407 ft | 274 kts | 252° |
| 2026-05-07 10:50 | 48.44402 | 2.20331 | 7006 ft | 273 kts | 252° |
| 2026-05-07 10:51 | 48.43754 | 2.17650 | 6610 ft | 272 kts | 245° |
| 2026-05-07 10:51 | 48.42919 | 2.15101 | 6200 ft | 271 kts | 247° |
| 2026-05-07 10:51 | 48.42522 | 2.12366 | 5963 ft | 269 kts | 271° |
| 2026-05-07 10:51 | 48.42894 | 2.09610 | 5855 ft | 269 kts | 295° |
| 2026-05-07 10:52 | 48.43957 | 2.07336 | 5763 ft | 267 kts | 318° |
| 2026-05-07 10:52 | 48.45516 | 2.05861 | 5683 ft | 265 kts | 340° |
| 2026-05-07 10:52 | 48.47264 | 2.04985 | 5637 ft | 265 kts | 343° |
| 2026-05-07 10:52 | 48.49001 | 2.04183 | 5606 ft | 251 kts | 344° |
| 2026-05-07 10:53 | 48.50607 | 2.03475 | 5512 ft | 233 kts | 344° |
| 2026-05-07 10:53 | 48.52119 | 2.02781 | 5443 ft | 221 kts | 343° |
| 2026-05-07 10:53 | 48.53554 | 2.02107 | 5366 ft | 210 kts | 343° |
| 2026-05-07 10:53 | 48.54912 | 2.01457 | 5377 ft | 199 kts | 343° |
| 2026-05-07 10:54 | 48.56235 | 2.00815 | 5504 ft | 201 kts | 343° |
| 2026-05-07 10:54 | 48.57572 | 2.00190 | 5442 ft | 201 kts | 348° |
| 2026-05-07 10:54 | 48.58936 | 2.00117 | 5243 ft | 199 kts | 9° |
| 2026-05-07 10:54 | 48.60255 | 2.00772 | 5052 ft | 198 kts | 29° |
| 2026-05-07 10:55 | 48.61313 | 2.02050 | 4839 ft | 199 kts | 48° |
| 2026-05-07 10:55 | 48.62053 | 2.03799 | 4579 ft | 198 kts | 61° |
| 2026-05-07 10:55 | 48.62703 | 2.05630 | 4264 ft | 198 kts | 60° |
| 2026-05-07 10:55 | 48.63358 | 2.07441 | 3866 ft | 195 kts | 60° |
| 2026-05-07 10:56 | 48.63983 | 2.09182 | 3634 ft | 180 kts | 61° |
| 2026-05-07 10:56 | 48.64546 | 2.10769 | 3509 ft | 165 kts | 60° |
| 2026-05-07 10:56 | 48.65080 | 2.12252 | 3259 ft | 160 kts | 60° |
| 2026-05-07 10:56 | 48.65613 | 2.13721 | 2984 ft | 159 kts | 60° |
| 2026-05-07 10:57 | 48.66132 | 2.15178 | 2783 ft | 152 kts | 60° |
| 2026-05-07 10:57 | 48.66625 | 2.16554 | 2613 ft | 146 kts | 60° |
| 2026-05-07 10:57 | 48.67102 | 2.17889 | 2423 ft | 143 kts | 60° |
| 2026-05-07 10:57 | 48.67574 | 2.19205 | 2232 ft | 143 kts | 60° |
| 2026-05-07 10:58 | 48.68049 | 2.20519 | 2068 ft | 142 kts | 60° |
| 2026-05-07 10:58 | 48.68517 | 2.21834 | 1862 ft | 142 kts | 61° |
| 2026-05-07 10:58 | 48.68974 | 2.23132 | 1629 ft | 141 kts | 62° |
| 2026-05-07 10:58 | 48.69438 | 2.24462 | 1419 ft | 141 kts | 62° |
| 2026-05-07 10:59 | 48.69899 | 2.25768 | 1234 ft | 141 kts | 60° |
| 2026-05-07 10:59 | 48.70350 | 2.27053 | 1058 ft | 140 kts | 60° |
| 2026-05-07 10:59 | 48.70815 | 2.28350 | 843 ft | 140 kts | 60° |
| 2026-05-07 10:59 | 48.71277 | 2.29650 | 697 ft | 140 kts | 61° |
| 2026-05-07 11:00 | 48.71742 | 2.30948 | 485 ft | 140 kts | 61° |
| 2026-05-07 11:00 | 48.72194 | 2.32251 | 318 ft | 139 kts | 60° |
| 2026-05-07 11:00 | 48.72616 | 2.33412 | 302 ft | 107 kts | 62° |
| 2026-05-07 11:00 | 48.72859 | 2.34111 | 301 ft | 53 kts | 63° |
| 2026-05-07 11:01 | 48.72988 | 2.34540 | 298 ft | 42 kts | 76° |
| 2026-05-07 11:01 | 48.73032 | 2.34926 | 298 ft | 21 kts | 82° |
| 2026-05-07 11:01 | 48.73037 | 2.35128 | 299 ft | 19 kts | 99° |
| 2026-05-07 11:01 | 48.72992 | 2.35262 | 300 ft | 13 kts | 135° |
| 2026-05-07 11:02 | 48.72933 | 2.35314 | 300 ft | 11 kts | 159° |
| 2026-05-07 11:02 | 48.72888 | 2.35404 | 302 ft | 12 kts | 130° |
| 2026-05-07 11:02 | 48.72807 | 2.35452 | 300 ft | 14 kts | 164° |
| 2026-05-07 11:02 | 48.72754 | 2.35533 | 300 ft | 10 kts | 85° |
| 2026-05-07 11:03 | 48.72760 | 2.35609 | 299 ft | 7 kts | 65° |
| 2026-05-07 11:03 | 48.72755 | 2.35679 | 302 ft | 7 kts | 133° |
| 2026-05-07 11:03 | 48.72736 | 2.35701 | 300 ft | 3 kts | 147° |
| 2026-05-07 11:03 | 48.72727 | 2.35709 | 300 ft | 2 kts | 147° |
| 2026-05-07 11:04 | 48.72724 | 2.35712 | 300 ft | 0 kts | 148° |